Time;durP1;ratioP1;P1;durP2;ratioP2;P2;SDS_P1;SDS_P2;PMS_P1;PMS_P2;Temp;Humidity;BMP_temperature;BMP_pressure;BME280_temperature;BME280_humidity;BME280_pressure;Samples;Min_cycle;Max_cycle;Signal;HPM_P1;HPM_P2
2022/12/22 03:26:19;;;;;;;23.53;22.33;;;;;;;;;;5115811;28;21266;-79
2022/12/22 03:28:46;;;;;;;23.80;22.60;;;;;;;;;;5115985;28;20506;-79
2022/12/22 03:31:13;;;;;;;22.97;21.67;;;;;;;;;;5115876;28;20448;-79
2022/12/22 03:33:42;;;;;;;23.33;22.00;;;;;;;;;;5115132;28;20434;-78
2022/12/22 03:36:09;;;;;;;24.10;22.63;;;;;;;;;;5115626;28;20545;-78
2022/12/22 03:38:36;;;;;;;22.73;21.53;;;;;;;;;;5115798;27;20848;-78
2022/12/22 03:41:03;;;;;;;22.80;21.60;;;;;;;;;;5115986;28;20422;-79
2022/12/22 03:46:31;;;;;;;22.53;21.43;;;;;;;;;;5115339;28;20420;-79
2022/12/22 03:49:10;;;;;;;22.93;21.73;;;;;;;;;;5115353;28;20489;-81
2022/12/22 03:51:38;;;;;;;23.80;22.30;;;;;;;;;;5115918;28;20857;-79
2022/12/22 03:54:05;;;;;;;23.03;21.83;;;;;;;;;;5115165;28;20958;-79
2022/12/22 03:56:32;;;;;;;22.90;21.73;;;;;;;;;;5116018;28;20480;-79
2022/12/22 03:58:59;;;;;;;22.27;21.07;;;;;;;;;;5116083;28;20508;-79
2022/12/22 04:01:26;;;;;;;22.47;21.27;;;;;;;;;;5115648;28;20422;-79
2022/12/22 04:03:53;;;;;;;22.13;21.00;;;;;;;;;;5114185;28;20458;-79
2022/12/22 04:06:22;;;;;;;22.00;20.90;;;;;;;;;;5115154;28;20467;-79
2022/12/22 04:08:49;;;;;;;21.40;20.30;;;;;;;;;;5114982;28;20451;-79
2022/12/22 04:14:02;;;;;;;22.30;21.17;;;;;;;;;;5114768;28;20403;-79
2022/12/22 04:16:29;;;;;;;22.53;21.33;;;;;;;;;;5114919;28;20858;-79
2022/12/22 04:18:56;;;;;;;23.10;21.90;;;;;;;;;;5115056;28;20425;-79
2022/12/22 04:21:24;;;;;;;23.13;21.90;;;;;;;;;;5114924;28;20464;-78
2022/12/22 04:23:51;;;;;;;21.53;20.37;;;;;;;;;;5114397;28;20443;-79
2022/12/22 04:26:18;;;;;;;22.33;21.07;;;;;;;;;;5114925;28;20490;-80
2022/12/22 04:28:45;;;;;;;22.20;20.97;;;;;;;;;;5115000;28;20910;-79
2022/12/22 04:31:12;;;;;;;22.67;21.10;;;;;;;;;;5116761;28;20418;-81
2022/12/22 04:33:39;;;;;;;22.37;21.27;;;;;;;;;;5116654;28;20447;-79
2022/12/22 04:36:06;;;;;;;21.53;20.33;;;;;;;;;;5116868;28;21051;-79
2022/12/22 04:38:35;;;;;;;22.77;21.47;;;;;;;;;;5116845;28;20844;-79
2022/12/22 04:41:02;;;;;;;23.00;21.80;;;;;;;;;;5116690;28;20414;-79
2022/12/22 04:43:29;;;;;;;22.83;21.67;;;;;;;;;;5116721;28;20788;-79
2022/12/22 04:45:57;;;;;;;23.20;21.90;;;;;;;;;;5116862;28;20475;-79
2022/12/22 04:48:24;;;;;;;23.63;22.33;;;;;;;;;;5116708;28;20831;-80
2022/12/22 04:50:52;;;;;;;24.50;22.90;;;;;;;;;;5116790;28;20491;-79
2022/12/22 04:53:19;;;;;;;24.27;22.87;;;;;;;;;;5115838;28;20445;-80
2022/12/22 04:55:47;;;;;;;24.23;22.83;;;;;;;;;;5116071;28;20904;-79
2022/12/22 04:58:14;;;;;;;25.40;24.00;;;;;;;;;;5115793;28;20479;-79
2022/12/22 05:00:42;;;;;;;25.53;24.13;;;;;;;;;;5115066;28;20500;-78
2022/12/22 05:03:09;;;;;;;24.20;22.90;;;;;;;;;;5114376;28;20496;-80
2022/12/22 05:05:36;;;;;;;26.47;24.93;;;;;;;;;;5115224;28;20449;-79
2022/12/22 05:08:04;;;;;;;27.87;26.17;;;;;;;;;;5115741;28;20455;-79
2022/12/22 05:10:31;;;;;;;26.10;24.30;;;;;;;;;;5115216;28;20523;-79
2022/12/22 05:12:59;;;;;;;25.20;23.80;;;;;;;;;;5115115;28;20757;-79
2022/12/22 05:15:28;;;;;;;28.53;26.80;;;;;;;;;;5116729;28;20486;-79
2022/12/22 05:20:58;;;;;;;28.07;26.33;;;;;;;;;;5116872;28;20482;-78
2022/12/22 05:23:25;;;;;;;27.77;26.17;;;;;;;;;;5118131;28;20477;-79
2022/12/22 05:25:52;;;;;;;29.27;27.67;;;;;;;;;;5118532;28;20445;-79
2022/12/22 05:28:20;;;;;;;28.60;26.57;;;;;;;;;;5119266;28;20451;-79
2022/12/22 05:30:47;;;;;;;28.23;26.63;;;;;;;;;;5118482;28;20438;-79
2022/12/22 05:33:14;;;;;;;27.33;25.67;;;;;;;;;;5117642;27;20463;-79
2022/12/22 05:35:41;;;;;;;27.93;26.13;;;;;;;;;;5118397;28;20500;-80
2022/12/22 05:38:08;;;;;;;27.50;26.00;;;;;;;;;;5118499;28;20409;-79
2022/12/22 05:40:36;;;;;;;28.27;26.67;;;;;;;;;;5118274;28;20539;-79
2022/12/22 05:43:03;;;;;;;27.23;25.43;;;;;;;;;;5117957;28;20452;-80
2022/12/22 05:45:31;;;;;;;27.60;26.10;;;;;;;;;;5118469;28;20458;-79
2022/12/22 05:47:58;;;;;;;26.87;25.37;;;;;;;;;;5118625;28;20439;-80
2022/12/22 05:50:26;;;;;;;30.20;28.50;;;;;;;;;;5118930;28;20455;-79
2022/12/22 05:52:55;;;;;;;27.47;25.90;;;;;;;;;;5118748;28;20791;-80
2022/12/22 05:55:22;;;;;;;27.30;25.70;;;;;;;;;;5117776;28;21013;-79
2022/12/22 05:57:49;;;;;;;28.60;27.00;;;;;;;;;;5118078;28;20887;-79
2022/12/22 06:00:17;;;;;;;27.90;26.30;;;;;;;;;;5118749;28;20430;-79
2022/12/22 06:02:45;;;;;;;28.00;26.10;;;;;;;;;;5117465;28;20945;-79
2022/12/22 06:05:13;;;;;;;27.27;25.70;;;;;;;;;;5117666;28;20478;-79
2022/12/22 06:07:41;;;;;;;28.03;26.37;;;;;;;;;;5118664;28;20480;-79
2022/12/22 06:10:08;;;;;;;28.13;26.53;;;;;;;;;;5118972;28;20426;-79
2022/12/22 06:12:35;;;;;;;28.30;26.70;;;;;;;;;;5118463;28;20459;-78
2022/12/22 06:15:02;;;;;;;28.23;26.73;;;;;;;;;;5117797;28;20850;-79
2022/12/22 06:17:29;;;;;;;27.00;25.50;;;;;;;;;;5118518;28;20532;-79
2022/12/22 06:19:58;;;;;;;28.23;26.63;;;;;;;;;;5118804;27;20793;-79
2022/12/22 06:22:25;;;;;;;28.53;26.73;;;;;;;;;;5118801;28;20454;-80
2022/12/22 06:24:52;;;;;;;28.57;26.77;;;;;;;;;;5117720;28;20818;-79
2022/12/22 06:27:19;;;;;;;28.90;27.07;;;;;;;;;;5118112;28;20464;-80
2022/12/22 06:29:46;;;;;;;27.70;26.10;;;;;;;;;;5118478;28;20425;-80
2022/12/22 06:32:13;;;;;;;28.07;26.30;;;;;;;;;;5118470;28;20434;-79
2022/12/22 06:34:40;;;;;;;26.67;25.17;;;;;;;;;;5117852;28;20427;-79
2022/12/22 06:37:08;;;;;;;27.60;25.97;;;;;;;;;;5117889;28;21028;-79
2022/12/22 06:39:35;;;;;;;27.70;26.00;;;;;;;;;;5117868;28;20919;-79
2022/12/22 06:44:49;;;;;;;29.80;27.60;;;;;;;;;;5117360;28;20499;-79
2022/12/22 06:47:16;;;;;;;29.33;27.53;;;;;;;;;;5117752;28;20471;-79
2022/12/22 06:49:43;;;;;;;29.40;27.43;;;;;;;;;;5117732;28;20485;-79
2022/12/22 06:52:11;;;;;;;29.17;27.27;;;;;;;;;;5117730;28;20428;-79
2022/12/22 06:54:39;;;;;;;27.90;26.20;;;;;;;;;;5116905;28;20406;-79
2022/12/22 06:57:06;;;;;;;27.63;25.80;;;;;;;;;;5117462;28;20465;-79
2022/12/22 06:59:33;;;;;;;28.67;26.97;;;;;;;;;;5117512;28;20448;-79
2022/12/22 07:02:00;;;;;;;28.10;26.30;;;;;;;;;;5116724;28;21036;-83
2022/12/22 07:04:28;;;;;;;29.00;27.33;;;;;;;;;;5117857;28;20462;-80
2022/12/22 07:06:55;;;;;;;29.13;27.43;;;;;;;;;;5118012;28;21040;-80
2022/12/22 07:09:23;;;;;;;31.57;29.47;;;;;;;;;;5117701;27;20513;-79
2022/12/22 07:11:50;;;;;;;35.27;32.37;;;;;;;;;;5118152;28;20426;-79
2022/12/22 07:14:17;;;;;;;31.67;29.57;;;;;;;;;;5117324;28;20418;-79
2022/12/22 07:16:45;;;;;;;29.13;27.33;;;;;;;;;;5116439;28;20469;-79
2022/12/22 07:19:12;;;;;;;30.10;28.00;;;;;;;;;;5117933;28;20461;-79
2022/12/22 07:21:39;;;;;;;30.07;27.20;;;;;;;;;;5116711;28;20504;-79
2022/12/22 07:24:07;;;;;;;28.77;26.87;;;;;;;;;;5116724;28;20418;-79
2022/12/22 07:26:35;;;;;;;28.60;26.43;;;;;;;;;;5116964;28;20535;-80
2022/12/22 07:29:02;;;;;;;29.13;27.03;;;;;;;;;;5117353;28;20477;-79
2022/12/22 07:31:29;;;;;;;27.93;25.63;;;;;;;;;;5117078;28;20471;-79
2022/12/22 07:33:56;;;;;;;27.63;25.73;;;;;;;;;;5116932;28;20410;-79
2022/12/22 07:36:23;;;;;;;26.90;25.27;;;;;;;;;;5117751;28;20438;-79
2022/12/22 07:38:51;;;;;;;27.20;25.40;;;;;;;;;;5116979;28;20851;-80
2022/12/22 07:44:05;;;;;;;28.93;26.77;;;;;;;;;;5117030;28;20414;-79
2022/12/22 07:46:34;;;;;;;30.40;28.27;;;;;;;;;;5117417;28;20446;-81
2022/12/22 07:51:46;;;;;;;29.07;27.23;;;;;;;;;;5119844;28;20444;-81
2022/12/22 07:54:14;;;;;;;28.33;26.30;;;;;;;;;;5119484;28;20450;-81
2022/12/22 07:56:41;;;;;;;29.47;27.23;;;;;;;;;;5120154;28;20533;-80
2022/12/22 07:59:09;;;;;;;28.63;26.83;;;;;;;;;;5119096;28;20493;-81
2022/12/22 08:01:37;;;;;;;27.60;25.80;;;;;;;;;;5118192;28;20422;-80
2022/12/22 08:04:04;;;;;;;28.17;26.27;;;;;;;;;;5117624;28;20430;-80
2022/12/22 08:06:33;;;;;;;43.63;27.40;;;;;;;;;;5118480;28;20438;-80
2022/12/22 08:09:00;;;;;;;30.93;27.53;;;;;;;;;;5117821;28;20617;-80
2022/12/22 08:11:27;;;;;;;28.13;26.53;;;;;;;;;;5118150;28;20489;-80
2022/12/22 08:13:54;;;;;;;31.23;28.83;;;;;;;;;;5118156;28;20833;-81
2022/12/22 08:16:22;;;;;;;30.57;28.50;;;;;;;;;;5118520;28;20467;-80
2022/12/22 08:18:50;;;;;;;32.30;30.10;;;;;;;;;;5117588;28;20465;-80
2022/12/22 08:21:17;;;;;;;31.47;29.10;;;;;;;;;;5117509;28;20431;-80
2022/12/22 08:23:44;;;;;;;30.30;28.30;;;;;;;;;;5116641;28;20501;-80
2022/12/22 08:26:15;;;;;;;30.30;28.40;;;;;;;;;;5117363;28;20450;-81
2022/12/22 08:28:45;;;;;;;30.57;28.33;;;;;;;;;;5117474;28;20427;-80
2022/12/22 08:31:12;;;;;;;51.93;47.73;;;;;;;;;;5119488;28;20447;-82
2022/12/22 08:33:40;;;;;;;37.87;35.03;;;;;;;;;;5117666;28;20450;-80
2022/12/22 08:36:07;;;;;;;36.97;33.80;;;;;;;;;;5117744;28;20517;-80
2022/12/22 08:38:35;;;;;;;36.00;33.53;;;;;;;;;;5118244;28;20509;-81
2022/12/22 08:41:02;;;;;;;71.70;42.30;;;;;;;;;;5117569;27;20474;-80
2022/12/22 08:43:30;;;;;;;34.03;30.57;;;;;;;;;;5118395;28;20943;-79
2022/12/22 08:45:57;;;;;;;32.77;29.87;;;;;;;;;;5117724;28;20442;-78
2022/12/22 08:48:24;;;;;;;30.17;28.40;;;;;;;;;;5119687;28;20418;-82
2022/12/22 08:50:52;;;;;;;29.83;27.93;;;;;;;;;;5122088;28;20475;-76
2022/12/22 08:53:19;;;;;;;34.63;32.47;;;;;;;;;;5117077;28;20459;-75
2022/12/22 08:55:51;;;;;;;31.20;29.30;;;;;;;;;;5117605;28;20517;-75
2022/12/22 08:58:18;;;;;;;32.00;29.77;;;;;;;;;;5119469;28;20986;-79
2022/12/22 09:00:45;;;;;;;32.00;30.07;;;;;;;;;;5122791;28;20499;-79
2022/12/22 09:03:12;;;;;;;33.03;30.77;;;;;;;;;;5121884;28;20488;-79
2022/12/22 09:05:40;;;;;;;32.23;30.37;;;;;;;;;;5117514;28;20475;-76
2022/12/22 09:08:09;;;;;;;33.60;31.40;;;;;;;;;;5117307;28;20448;-76
2022/12/22 09:10:36;;;;;;;32.67;30.53;;;;;;;;;;5117453;28;20496;-79
2022/12/22 09:13:03;;;;;;;36.00;33.10;;;;;;;;;;5122739;28;20473;-80
2022/12/22 09:15:30;;;;;;;36.93;34.43;;;;;;;;;;5123587;28;20519;-80
2022/12/22 09:17:56;;;;;;;34.40;32.03;;;;;;;;;;5119469;28;20479;-76
2022/12/22 09:20:23;;;;;;;34.63;32.10;;;;;;;;;;5117111;28;20423;-76
2022/12/22 09:22:50;;;;;;;33.80;31.40;;;;;;;;;;5116976;28;20418;-76
2022/12/22 09:25:19;;;;;;;34.33;31.73;;;;;;;;;;5116451;27;20475;-75
2022/12/22 09:27:46;;;;;;;35.90;33.20;;;;;;;;;;5115243;27;20499;-76
2022/12/22 09:30:13;;;;;;;35.00;32.57;;;;;;;;;;5116795;28;20504;-76
2022/12/22 09:32:40;;;;;;;33.33;30.93;;;;;;;;;;5116467;28;20462;-76
2022/12/22 09:35:08;;;;;;;33.53;30.83;;;;;;;;;;5116178;28;20493;-76
2022/12/22 09:37:34;;;;;;;34.87;31.87;;;;;;;;;;5116273;28;20539;-76
2022/12/22 09:40:02;;;;;;;34.97;32.47;;;;;;;;;;5116392;28;20483;-75
2022/12/22 09:42:32;;;;;;;35.13;32.47;;;;;;;;;;5116416;28;20446;-76
2022/12/22 09:44:59;;;;;;;35.37;32.33;;;;;;;;;;5115521;27;20516;-76
2022/12/22 09:47:32;;;;;;;35.73;33.07;;;;;;;;;;5116632;28;20431;-75
2022/12/22 09:49:59;;;;;;;35.13;32.27;;;;;;;;;;5116450;28;20422;-75
2022/12/22 09:52:31;;;;;;;34.17;30.93;;;;;;;;;;5116443;27;20451;-76
2022/12/22 09:54:58;;;;;;;34.70;31.13;;;;;;;;;;5115881;28;20489;-75
2022/12/22 09:57:29;;;;;;;32.63;29.53;;;;;;;;;;5116835;28;20539;-80
2022/12/22 09:59:58;;;;;;;34.50;30.90;;;;;;;;;;5116509;27;20459;-81
2022/12/22 10:02:29;;;;;;;32.97;29.53;;;;;;;;;;5116415;28;20454;-76
2022/12/22 10:05:01;;;;;;;37.13;28.03;;;;;;;;;;5115594;28;20403;-76
2022/12/22 10:07:31;;;;;;;39.30;30.47;;;;;;;;;;5118048;28;20487;-78
2022/12/22 10:09:58;;;;;;;33.93;29.43;;;;;;;;;;5116405;28;20434;-77
2022/12/22 10:12:26;;;;;;;31.83;29.00;;;;;;;;;;5115693;27;20440;-78
2022/12/22 10:14:54;;;;;;;30.10;27.70;;;;;;;;;;5115461;28;20458;-77
2022/12/22 10:17:24;;;;;;;30.70;28.23;;;;;;;;;;5116008;28;20482;-78
2022/12/22 10:19:52;;;;;;;30.90;28.20;;;;;;;;;;5115910;28;20440;-77
2022/12/22 10:22:22;;;;;;;32.47;29.83;;;;;;;;;;5115783;28;20425;-77
2022/12/22 10:24:49;;;;;;;31.57;28.93;;;;;;;;;;5115091;28;20862;-77
2022/12/22 10:27:17;;;;;;;28.83;26.53;;;;;;;;;;5115693;28;20494;-77
2022/12/22 10:29:44;;;;;;;28.90;26.63;;;;;;;;;;5114876;27;20460;-76
2022/12/22 10:32:13;;;;;;;29.40;27.20;;;;;;;;;;5115452;28;20457;-76
2022/12/22 10:34:58;;;;;;;30.77;28.33;;;;;;;;;;5115135;28;20499;-76
2022/12/22 10:37:30;;;;;;;31.07;28.60;;;;;;;;;;5115202;28;20486;-77
2022/12/22 10:39:57;;;;;;;28.40;26.20;;;;;;;;;;5115585;28;20427;-77
2022/12/22 10:42:24;;;;;;;27.37;25.50;;;;;;;;;;5115526;28;20422;-76
2022/12/22 10:44:51;;;;;;;26.37;24.53;;;;;;;;;;5114102;27;20966;-73
2022/12/22 10:47:20;;;;;;;28.90;26.70;;;;;;;;;;5115261;28;20462;-74
2022/12/22 10:49:50;;;;;;;27.63;25.70;;;;;;;;;;5115090;28;20918;-74
2022/12/22 10:52:18;;;;;;;29.77;27.03;;;;;;;;;;5115353;28;20418;-75
2022/12/22 10:54:45;;;;;;;29.83;27.30;;;;;;;;;;5114663;27;20931;-74
2022/12/22 10:57:26;;;;;;;30.57;28.03;;;;;;;;;;5115007;28;20434;-74
2022/12/22 10:59:54;;;;;;;28.03;25.70;;;;;;;;;;5114902;27;20425;-75
2022/12/22 11:02:26;;;;;;;29.50;26.90;;;;;;;;;;5115381;28;20418;-75
2022/12/22 11:04:55;;;;;;;30.53;27.87;;;;;;;;;;5114396;28;20446;-78
2022/12/22 11:07:22;;;;;;;28.57;25.97;;;;;;;;;;5115560;28;20938;-74
2022/12/22 11:09:49;;;;;;;31.90;29.13;;;;;;;;;;5114369;27;20872;-75
2022/12/22 11:12:23;;;;;;;27.70;25.50;;;;;;;;;;5114145;28;20475;-77
2022/12/22 11:14:52;;;;;;;31.57;28.57;;;;;;;;;;5113611;28;20436;-74
2022/12/22 11:17:23;;;;;;;29.13;26.60;;;;;;;;;;5114303;28;20431;-74
2022/12/22 11:20:14;;;;;;;31.33;28.83;;;;;;;;;;5113679;27;20469;-74
2022/12/22 11:22:44;;;;;;;30.03;27.10;;;;;;;;;;5114303;28;20886;-74
2022/12/22 11:25:19;;;;;;;36.43;32.93;;;;;;;;;;5113904;28;20431;-74
2022/12/22 11:27:50;;;;;;;32.07;29.37;;;;;;;;;;5114548;27;20427;-74
2022/12/22 11:30:19;;;;;;;31.90;28.83;;;;;;;;;;5113851;27;20445;-74
2022/12/22 11:32:54;;;;;;;32.03;29.13;;;;;;;;;;5114133;28;20426;-74
2022/12/22 11:35:30;;;;;;;31.60;28.37;;;;;;;;;;5114028;28;20430;-74
2022/12/22 11:37:59;;;;;;;33.60;30.40;;;;;;;;;;5114054;28;20522;-74
2022/12/22 11:40:32;;;;;;;31.40;28.07;;;;;;;;;;5113753;27;20419;-74
2022/12/22 11:43:09;;;;;;;31.37;28.57;;;;;;;;;;5113620;28;20417;-75
2022/12/22 11:45:49;;;;;;;29.63;27.03;;;;;;;;;;5114115;28;20503;-74
2022/12/22 11:48:27;;;;;;;30.50;27.70;;;;;;;;;;5113881;28;20911;-75
2022/12/22 11:50:56;;;;;;;31.60;28.50;;;;;;;;;;5113762;28;20949;-75
2022/12/22 11:53:35;;;;;;;33.50;30.47;;;;;;;;;;5113517;28;20440;-75
2022/12/22 11:56:06;;;;;;;31.00;28.20;;;;;;;;;;5114043;28;20464;-74
2022/12/22 11:58:42;;;;;;;28.77;26.33;;;;;;;;;;5113975;28;20468;-75
2022/12/22 12:01:18;;;;;;;28.40;26.10;;;;;;;;;;5113942;28;20431;-74
2022/12/22 12:03:54;;;;;;;30.50;27.50;;;;;;;;;;5113042;28;20413;-75
2022/12/22 12:06:29;;;;;;;28.27;25.87;;;;;;;;;;5113874;28;20532;-75
2022/12/22 12:09:03;;;;;;;28.00;25.67;;;;;;;;;;5113158;27;20457;-75
2022/12/22 12:11:35;;;;;;;28.57;26.23;;;;;;;;;;5113664;28;20446;-74
2022/12/22 12:14:05;;;;;;;30.40;27.60;;;;;;;;;;5113049;28;20439;-74
2022/12/22 12:16:37;;;;;;;29.83;27.20;;;;;;;;;;5113721;28;20468;-75
2022/12/22 12:19:17;;;;;;;27.93;25.50;;;;;;;;;;5113473;28;20437;-74
2022/12/22 12:21:48;;;;;;;28.40;25.77;;;;;;;;;;5113387;28;20890;-74
2022/12/22 12:24:39;;;;;;;30.13;27.43;;;;;;;;;;5112698;28;20505;-74
2022/12/22 12:27:08;;;;;;;27.70;25.30;;;;;;;;;;5112638;27;20545;-74
2022/12/22 12:29:37;;;;;;;28.17;25.97;;;;;;;;;;5113362;28;20448;-75
2022/12/22 12:32:07;;;;;;;29.10;26.60;;;;;;;;;;5113302;28;20441;-75
2022/12/22 12:34:37;;;;;;;27.27;24.97;;;;;;;;;;5112865;28;20433;-75
2022/12/22 12:37:08;;;;;;;23.83;22.00;;;;;;;;;;5112883;28;21004;-74
2022/12/22 12:39:38;;;;;;;29.07;26.47;;;;;;;;;;5113254;28;20505;-75
2022/12/22 12:42:14;;;;;;;27.20;24.90;;;;;;;;;;5112820;27;20450;-74
2022/12/22 12:44:41;;;;;;;26.83;24.73;;;;;;;;;;5113077;28;20406;-75
2022/12/22 12:47:21;;;;;;;29.87;27.20;;;;;;;;;;5112926;28;20453;-74
2022/12/22 12:50:02;;;;;;;27.73;25.50;;;;;;;;;;5113103;28;20406;-75
2022/12/22 12:52:49;;;;;;;30.03;27.37;;;;;;;;;;5112653;27;20524;-75
2022/12/22 12:55:27;;;;;;;26.13;23.80;;;;;;;;;;5112587;28;20433;-75
2022/12/22 12:57:54;;;;;;;29.03;26.53;;;;;;;;;;5113264;28;20421;-75
2022/12/22 13:00:39;;;;;;;29.17;26.83;;;;;;;;;;5112788;28;20457;-74
2022/12/22 13:03:09;;;;;;;28.77;26.20;;;;;;;;;;5112459;28;20421;-75
2022/12/22 13:05:49;;;;;;;28.30;25.80;;;;;;;;;;5113145;27;20978;-76
2022/12/22 13:08:18;;;;;;;27.50;25.20;;;;;;;;;;5113524;28;20447;-74
2022/12/22 13:10:48;;;;;;;27.87;25.57;;;;;;;;;;5112682;28;20985;-75
2022/12/22 13:13:39;;;;;;;25.87;23.87;;;;;;;;;;5112522;28;20611;-76
2022/12/22 13:16:21;;;;;;;28.40;26.10;;;;;;;;;;5112406;28;20442;-75
2022/12/22 13:18:50;;;;;;;29.27;26.87;;;;;;;;;;5113049;28;20438;-75
2022/12/22 13:21:21;;;;;;;29.70;27.03;;;;;;;;;;5112921;28;20421;-75
2022/12/22 13:23:51;;;;;;;25.33;23.37;;;;;;;;;;5111820;28;20888;-75
2022/12/22 13:26:21;;;;;;;27.57;25.30;;;;;;;;;;5112009;28;20529;-75
2022/12/22 13:28:56;;;;;;;28.00;25.60;;;;;;;;;;5112692;28;20481;-76
2022/12/22 13:31:25;;;;;;;27.80;25.60;;;;;;;;;;5112932;28;20762;-75
2022/12/22 13:34:00;;;;;;;27.90;25.63;;;;;;;;;;5112461;28;20410;-76
2022/12/22 13:36:28;;;;;;;26.20;24.10;;;;;;;;;;5114006;27;20471;-75
2022/12/22 13:39:00;;;;;;;27.23;25.10;;;;;;;;;;5116836;28;20560;-76
2022/12/22 13:41:29;;;;;;;26.67;24.63;;;;;;;;;;5117580;28;20435;-78
2022/12/22 13:43:57;;;;;;;26.87;24.70;;;;;;;;;;5116932;28;20429;-75
2022/12/22 13:46:25;;;;;;;25.80;23.90;;;;;;;;;;5116476;28;20434;-75
2022/12/22 13:48:53;;;;;;;24.90;23.10;;;;;;;;;;5116924;28;20438;-75
2022/12/22 13:51:22;;;;;;;25.80;23.70;;;;;;;;;;5116543;28;20511;-75
2022/12/22 13:53:50;;;;;;;26.40;24.40;;;;;;;;;;5116061;28;20450;-76
2022/12/22 13:56:20;;;;;;;27.27;24.87;;;;;;;;;;5116489;28;20467;-76
2022/12/22 13:58:52;;;;;;;24.97;22.67;;;;;;;;;;5116186;28;20552;-76
2022/12/22 14:01:20;;;;;;;27.53;25.33;;;;;;;;;;5116197;28;20418;-75
2022/12/22 14:03:48;;;;;;;25.63;23.73;;;;;;;;;;5115539;28;20867;-76
2022/12/22 14:06:19;;;;;;;24.77;22.77;;;;;;;;;;5116196;28;20525;-76
2022/12/22 14:08:46;;;;;;;25.27;23.43;;;;;;;;;;5116109;27;20422;-76
2022/12/22 14:11:13;;;;;;;25.17;22.77;;;;;;;;;;5115778;28;20436;-78
2022/12/22 14:13:40;;;;;;;24.53;22.73;;;;;;;;;;5115485;27;20439;-76
2022/12/22 14:16:13;;;;;;;26.80;24.63;;;;;;;;;;5115866;28;20438;-76
2022/12/22 14:18:40;;;;;;;24.63;22.93;;;;;;;;;;5115669;28;20850;-75
2022/12/22 14:21:07;;;;;;;25.77;23.57;;;;;;;;;;5115635;28;20962;-75
2022/12/22 14:23:35;;;;;;;27.30;24.97;;;;;;;;;;5114976;28;20477;-75
2022/12/22 14:26:05;;;;;;;28.67;25.60;;;;;;;;;;5115842;28;20438;-76
2022/12/22 14:28:34;;;;;;;22.90;21.30;;;;;;;;;;5115333;27;20443;-76
2022/12/22 14:31:03;;;;;;;27.50;25.07;;;;;;;;;;5115748;28;20811;-75
2022/12/22 14:33:32;;;;;;;26.20;24.10;;;;;;;;;;5114757;28;20445;-75
2022/12/22 14:36:14;;;;;;;28.77;25.77;;;;;;;;;;5115339;28;20900;-75
2022/12/22 14:38:43;;;;;;;26.53;24.33;;;;;;;;;;5115410;28;20418;-75
2022/12/22 14:41:39;;;;;;;27.97;25.60;;;;;;;;;;5115565;28;20539;-74
2022/12/22 14:43:58;;;;;;;27.93;25.63;;;;;;;;;;5113865;27;20517;-75
2022/12/22 14:46:25;;;;;;;29.80;27.00;;;;;;;;;;5114877;28;20445;-75
2022/12/22 14:48:54;;;;;;;28.33;26.03;;;;;;;;;;5115054;28;20443;-75
2022/12/22 14:51:21;;;;;;;28.13;25.70;;;;;;;;;;5115368;28;20448;-75
2022/12/22 14:53:49;;;;;;;29.43;26.57;;;;;;;;;;5114029;27;20446;-76
2022/12/22 14:56:17;;;;;;;331.42;126.53;;;;;;;;;;5115214;28;20445;-78
2022/12/22 14:58:45;;;;;;;30.97;28.13;;;;;;;;;;5115160;28;20202;-77
2022/12/22 15:01:14;;;;;;;29.23;26.97;;;;;;;;;;5114891;28;20418;-77
2022/12/22 15:03:41;;;;;;;31.60;28.57;;;;;;;;;;5114372;28;20490;-77
2022/12/22 15:06:33;;;;;;;34.67;31.70;;;;;;;;;;5114276;27;20481;-77
2022/12/22 15:09:10;;;;;;;29.60;26.93;;;;;;;;;;5094615;28;20441;-77
2022/12/22 15:11:39;;;;;;;30.90;28.00;;;;;;;;;;5094475;28;20450;-77
2022/12/22 15:14:10;;;;;;;27.60;25.30;;;;;;;;;;5093954;28;20417;-77
2022/12/22 15:16:36;;;;;;;29.77;27.27;;;;;;;;;;5094404;28;20447;-77
2022/12/22 15:19:04;;;;;;;29.87;26.83;;;;;;;;;;5094422;28;20419;-77
2022/12/22 15:21:33;;;;;;;28.37;26.17;;;;;;;;;;5093559;28;20804;-77
2022/12/22 15:24:00;;;;;;;28.00;25.60;;;;;;;;;;5093516;28;20932;-78
2022/12/22 15:26:27;;;;;;;29.03;26.53;;;;;;;;;;5093752;28;20826;-77
2022/12/22 15:28:54;;;;;;;26.80;24.73;;;;;;;;;;5094436;28;20452;-77
2022/12/22 15:31:21;;;;;;;27.50;25.20;;;;;;;;;;5094407;28;20546;-77
2022/12/22 15:33:48;;;;;;;27.20;24.90;;;;;;;;;;5095491;28;20930;-77
2022/12/22 15:36:16;;;;;;;26.73;24.23;;;;;;;;;;5098351;28;20471;-77
2022/12/22 15:38:44;;;;;;;27.60;25.30;;;;;;;;;;5093686;28;20446;-77
2022/12/22 15:41:11;;;;;;;27.60;25.30;;;;;;;;;;5094661;28;20537;-77
2022/12/22 15:43:38;;;;;;;26.63;24.43;;;;;;;;;;5093105;28;20497;-77
2022/12/22 15:46:05;;;;;;;28.07;25.30;;;;;;;;;;5094010;28;20479;-77
2022/12/22 15:48:34;;;;;;;26.47;24.43;;;;;;;;;;5093355;28;20520;-76
2022/12/22 15:51:03;;;;;;;28.00;25.80;;;;;;;;;;5093949;28;20407;-77
2022/12/22 15:53:30;;;;;;;29.63;27.23;;;;;;;;;;5093146;28;20456;-77
2022/12/22 15:55:59;;;;;;;29.03;26.63;;;;;;;;;;5093687;28;20475;-77
2022/12/22 15:58:27;;;;;;;29.43;26.80;;;;;;;;;;5093244;28;20487;-77
2022/12/22 16:00:54;;;;;;;27.30;24.70;;;;;;;;;;5093573;28;20830;-77
2022/12/22 16:03:21;;;;;;;29.70;27.20;;;;;;;;;;5101615;27;20434;-77
2022/12/22 16:05:49;;;;;;;31.33;28.57;;;;;;;;;;5114053;28;20464;-77
2022/12/22 16:08:17;;;;;;;29.03;26.57;;;;;;;;;;5113537;28;20438;-78
2022/12/22 16:10:44;;;;;;;31.67;28.77;;;;;;;;;;5113886;28;20506;-77
2022/12/22 16:13:14;;;;;;;31.60;28.80;;;;;;;;;;5112946;28;20930;-78
2022/12/22 16:15:41;;;;;;;32.00;29.17;;;;;;;;;;5112994;27;20521;-78
2022/12/22 16:18:12;;;;;;;30.60;27.70;;;;;;;;;;5113735;28;20519;-78
2022/12/22 16:20:40;;;;;;;33.63;30.53;;;;;;;;;;5113293;28;20474;-77
2022/12/22 16:23:08;;;;;;;31.97;29.10;;;;;;;;;;5112731;28;20475;-78
2022/12/22 16:25:37;;;;;;;32.50;29.60;;;;;;;;;;5113190;28;20530;-77
2022/12/22 16:28:05;;;;;;;34.63;31.17;;;;;;;;;;5113672;28;21088;-77
2022/12/22 16:30:34;;;;;;;33.37;30.40;;;;;;;;;;5113418;28;20997;-77
2022/12/22 16:33:01;;;;;;;33.90;30.63;;;;;;;;;;5112895;28;20460;-78
2022/12/22 16:35:31;;;;;;;35.33;32.13;;;;;;;;;;5113477;28;20429;-77
2022/12/22 16:37:59;;;;;;;33.60;30.40;;;;;;;;;;5113411;28;20511;-77
2022/12/22 16:40:27;;;;;;;35.10;31.50;;;;;;;;;;5114230;28;20506;-77
2022/12/22 16:42:59;;;;;;;36.37;32.90;;;;;;;;;;5116390;28;20801;-77
2022/12/22 16:45:27;;;;;;;33.70;30.70;;;;;;;;;;5114508;28;20494;-83
2022/12/22 16:47:58;;;;;;;34.37;31.17;;;;;;;;;;5114312;28;20867;-76
2022/12/22 16:50:31;;;;;;;37.33;33.97;;;;;;;;;;5113344;28;20491;-75
2022/12/22 16:52:59;;;;;;;41.23;36.80;;;;;;;;;;5112466;28;20980;-74
2022/12/22 16:55:26;;;;;;;40.83;36.30;;;;;;;;;;5113311;28;20417;-74
2022/12/22 16:57:53;;;;;;;36.83;33.50;;;;;;;;;;5113252;28;20468;-75
2022/12/22 17:00:21;;;;;;;38.10;34.20;;;;;;;;;;5112946;28;20836;-75
2022/12/22 17:02:49;;;;;;;39.03;35.30;;;;;;;;;;5112938;28;20422;-75
2022/12/22 17:05:22;;;;;;;39.20;35.57;;;;;;;;;;5112527;28;20448;-76
2022/12/22 17:07:49;;;;;;;37.53;34.13;;;;;;;;;;5112411;28;20499;-75
2022/12/22 17:10:16;;;;;;;34.90;31.90;;;;;;;;;;5114785;28;20603;-75
2022/12/22 17:12:43;;;;;;;38.97;34.83;;;;;;;;;;5117256;27;20853;-75
2022/12/22 17:15:13;;;;;;;37.23;33.83;;;;;;;;;;5116592;28;20429;-76
2022/12/22 17:17:40;;;;;;;33.33;30.30;;;;;;;;;;5116740;27;20445;-75
2022/12/22 17:20:08;;;;;;;45.37;36.23;;;;;;;;;;5117086;28;20500;-74
2022/12/22 17:22:37;;;;;;;81.27;49.90;;;;;;;;;;5117543;28;20439;-77
2022/12/22 17:25:06;;;;;;;61.70;45.30;;;;;;;;;;5116205;28;20922;-76
2022/12/22 17:27:34;;;;;;;45.00;40.40;;;;;;;;;;5118050;27;20472;-84
2022/12/22 17:30:02;;;;;;;44.60;39.80;;;;;;;;;;5121487;28;20477;-85
2022/12/22 17:32:29;;;;;;;38.03;34.43;;;;;;;;;;5125402;28;20455;-84
2022/12/22 17:34:56;;;;;;;35.80;32.43;;;;;;;;;;5124848;28;20454;-86
2022/12/22 17:37:24;;;;;;;37.77;34.40;;;;;;;;;;5117599;28;20785;-76
2022/12/22 17:39:53;;;;;;;36.60;33.40;;;;;;;;;;5116617;28;20508;-76
2022/12/22 17:42:20;;;;;;;37.60;34.20;;;;;;;;;;5117212;27;20429;-76
2022/12/22 17:44:48;;;;;;;37.67;34.10;;;;;;;;;;5115610;27;20441;-76
2022/12/22 17:47:16;;;;;;;36.27;33.10;;;;;;;;;;5116716;28;20472;-77
2022/12/22 17:49:44;;;;;;;39.43;35.60;;;;;;;;;;5116513;28;20455;-77
2022/12/22 17:52:17;;;;;;;35.60;32.30;;;;;;;;;;5116666;28;20966;-77
2022/12/22 17:54:45;;;;;;;39.23;35.27;;;;;;;;;;5115926;28;20451;-76
2022/12/22 17:57:16;;;;;;;39.07;35.27;;;;;;;;;;5115389;27;20860;-77
2022/12/22 17:59:43;;;;;;;39.90;36.23;;;;;;;;;;5115482;28;20434;-76
2022/12/22 18:02:16;;;;;;;38.27;34.20;;;;;;;;;;5105382;28;20498;-76
2022/12/22 18:04:42;;;;;;;35.83;32.40;;;;;;;;;;5099195;28;20415;-77
2022/12/22 18:07:10;;;;;;;37.33;33.53;;;;;;;;;;5099816;28;20495;-77
2022/12/22 18:09:37;;;;;;;37.13;33.47;;;;;;;;;;5098822;28;20421;-77